Time;durP1;ratioP1;P1;durP2;ratioP2;P2;SDS_P1;SDS_P2;PMS_P1;PMS_P2;Temp;Humidity;BMP_temperature;BMP_pressure;BME280_temperature;BME280_humidity;BME280_pressure;Samples;Min_cycle;Max_cycle;Signal;HPM_P1;HPM_P2
2023/03/14 00:00:38;;;;;;;1.00;0.90;;;11.60;99.90;;;;;;7389557;19;20353;-87
2023/03/14 00:03:04;;;;;;;0.80;0.80;;;11.50;99.90;;;;;;7408980;19;20332;-83
2023/03/14 00:05:29;;;;;;;0.70;0.70;;;11.60;99.90;;;;;;7404462;19;20445;-85
2023/03/14 00:07:55;;;;;;;0.60;0.60;;;11.60;99.90;;;;;;7411860;19;20352;-85
2023/03/14 00:10:20;;;;;;;0.90;0.90;;;11.50;99.90;;;;;;7415722;19;20328;-84
2023/03/14 00:12:46;;;;;;;0.80;0.80;;;11.50;99.90;;;;;;7412652;19;20336;-84
2023/03/14 00:15:12;;;;;;;0.75;0.75;;;11.50;99.90;;;;;;7410158;19;20722;-81
2023/03/14 00:17:37;;;;;;;0.70;0.70;;;11.50;99.90;;;;;;7409049;19;20353;-83
2023/03/14 00:20:07;;;;;;;0.70;0.70;;;11.50;99.90;;;;;;7404880;19;21357;-85
2023/03/14 00:22:34;;;;;;;0.70;0.70;;;11.50;99.90;;;;;;7410714;19;20354;-85
2023/03/14 00:25:30;;;;;;;0.82;0.82;;;11.50;99.90;;;;;;7408962;19;20855;-78
2023/03/14 00:34:50;;;;;;;0.70;0.70;;;11.40;99.90;;;;;;7400150;19;20345;-82
2023/03/14 00:37:16;;;;;;;0.70;0.70;;;11.40;99.90;;;;;;7391691;19;20308;-81
2023/03/14 00:39:42;;;;;;;0.75;0.75;;;11.50;99.90;;;;;;7389152;19;20320;-79
2023/03/14 00:42:10;;;;;;;0.75;0.75;;;11.50;99.90;;;;;;7387743;19;21265;-81
2023/03/14 00:44:46;;;;;;;0.60;0.60;;;11.40;99.90;;;;;;7371864;19;20839;-78
2023/03/14 00:47:12;;;;;;;0.70;0.70;;;11.40;99.90;;;;;;7388095;19;20382;-79
2023/03/14 00:49:38;;;;;;;0.70;0.70;;;11.40;99.90;;;;;;7384724;19;20313;-80
2023/03/14 00:52:06;;;;;;;0.70;0.70;;;11.30;99.90;;;;;;7393229;19;20324;-83
2023/03/14 00:54:32;;;;;;;1.20;0.85;;;11.40;99.90;;;;;;7390528;19;20333;-80
2023/03/14 00:57:00;;;;;;;0.90;0.80;;;11.30;99.90;;;;;;7388707;19;20894;-83
2023/03/14 00:59:26;;;;;;;0.80;0.80;;;11.30;99.90;;;;;;7386353;19;20313;-80
2023/03/14 01:01:52;;;;;;;1.00;0.90;;;11.20;99.90;;;;;;7389071;19;20305;-82
2023/03/14 01:04:18;;;;;;;0.80;0.80;;;11.20;99.90;;;;;;7386422;19;20316;-80
2023/03/14 01:06:45;;;;;;;0.85;0.85;;;11.20;99.90;;;;;;7389701;19;20309;-79
2023/03/14 01:09:18;;;;;;;1.23;0.90;;;11.20;99.90;;;;;;7389796;19;20337;-80
2023/03/14 01:11:46;;;;;;;0.73;0.70;;;11.20;99.90;;;;;;7380909;19;20324;-80
2023/03/14 01:14:12;;;;;;;0.68;0.68;;;11.20;99.90;;;;;;7388940;19;21330;-81
2023/03/14 01:16:38;;;;;;;1.30;0.90;;;11.20;99.90;;;;;;7388520;19;20316;-81
2023/03/14 01:19:04;;;;;;;0.80;0.80;;;11.20;99.90;;;;;;7392032;19;21289;-83
2023/03/14 01:21:33;;;;;;;0.80;0.80;;;11.20;99.90;;;;;;7390398;19;20350;-79
2023/03/14 01:24:00;;;;;;;2.00;0.82;;;11.10;99.90;;;;;;7393821;19;20329;-87
2023/03/14 01:26:28;;;;;;;0.93;0.82;;;11.10;99.90;;;;;;7378907;19;21871;-80
2023/03/14 01:28:55;;;;;;;0.90;0.90;;;11.10;99.90;;;;;;7392135;19;20362;-78
2023/03/14 01:31:21;;;;;;;0.80;0.80;;;11.00;99.90;;;;;;7365165;19;20380;-83
2023/03/14 01:33:46;;;;;;;0.77;0.77;;;11.10;99.90;;;;;;7388034;19;20353;-81
2023/03/14 01:36:12;;;;;;;0.95;0.95;;;11.00;99.90;;;;;;7393018;19;20770;-81
2023/03/14 01:38:39;;;;;;;1.20;1.00;;;11.00;99.90;;;;;;7397363;19;20312;-91
2023/03/14 01:41:07;;;;;;;1.00;1.00;;;11.00;99.90;;;;;;7397012;19;20894;-80
2023/03/14 01:43:33;;;;;;;0.93;0.93;;;11.00;99.90;;;;;;7392164;19;20317;-82
2023/03/14 01:46:05;;;;;;;1.05;1.05;;;10.90;99.90;;;;;;7388591;19;20397;-81
2023/03/14 01:49:10;;;;;;;1.08;1.00;;;10.90;99.90;;;;;;7390172;19;20716;-80
2023/03/14 01:51:42;;;;;;;1.02;1.02;;;10.90;99.90;;;;;;7298568;19;2004250;-83
2023/03/14 01:54:19;;;;;;;0.82;0.82;;;10.80;99.90;;;;;;7410507;19;20335;-85
2023/03/14 01:56:49;;;;;;;0.90;0.90;;;10.80;99.90;;;;;;7407876;19;20360;-85
2023/03/14 01:59:15;;;;;;;1.00;1.00;;;10.80;99.90;;;;;;7407204;19;20312;-89
2023/03/14 02:01:42;;;;;;;1.20;1.10;;;10.90;99.90;;;;;;7407730;19;20325;-77
2023/03/14 02:04:14;;;;;;;1.15;1.05;;;10.80;99.90;;;;;;7367497;19;20342;-78
2023/03/14 02:06:55;;;;;;;1.70;1.00;;;10.80;99.90;;;;;;7377079;19;20360;-82
2023/03/14 02:09:25;;;;;;;1.42;1.10;;;10.80;99.90;;;;;;7284567;19;2004584;-79
2023/03/14 02:11:50;;;;;;;1.02;1.02;;;10.80;99.90;;;;;;7397428;19;20373;-83
2023/03/14 02:14:35;;;;;;;1.30;1.20;;;10.80;99.90;;;;;;7304773;19;2004268;-83
2023/03/14 02:17:33;;;;;;;1.27;1.17;;;10.80;99.90;;;;;;7288364;19;2004473;-80
2023/03/14 02:20:29;;;;;;;1.33;1.23;;;10.80;99.90;;;;;;7391967;19;20337;-80
2023/03/14 02:22:57;;;;;;;1.10;1.10;;;10.80;99.90;;;;;;7287096;19;2004384;-79
2023/03/14 02:25:44;;;;;;;1.55;1.30;;;10.80;99.90;;;;;;7385582;19;20340;-84
2023/03/14 02:28:17;;;;;;;1.40;1.30;;;10.80;99.90;;;;;;7389101;19;20696;-79
2023/03/14 02:30:52;;;;;;;1.13;1.10;;;10.80;99.90;;;;;;7390102;19;20314;-81
2023/03/14 02:33:20;;;;;;;1.45;1.35;;;10.80;99.90;;;;;;7388994;19;20315;-81
2023/03/14 02:36:00;;;;;;;1.70;1.23;;;10.80;99.90;;;;;;7388765;19;20301;-81
2023/03/14 02:38:41;;;;;;;1.50;1.40;;;10.80;99.90;;;;;;7287041;19;2004678;-81
2023/03/14 02:48:15;;;;;;;1.25;1.17;;;10.70;99.90;;;;;;7400152;19;21009;-80
2023/03/14 02:50:42;;;;;;;1.20;1.10;;;10.70;99.90;;;;;;7369074;19;20408;-82
2023/03/14 02:53:08;;;;;;;1.08;1.00;;;10.70;99.90;;;;;;7390218;19;20355;-80
2023/03/14 02:55:33;;;;;;;1.30;1.20;;;10.70;99.90;;;;;;7388948;19;20316;-80
2023/03/14 02:58:04;;;;;;;1.05;1.02;;;10.70;99.90;;;;;;7399095;19;20359;-81
2023/03/14 03:00:30;;;;;;;1.40;1.30;;;10.80;99.90;;;;;;7407021;19;20369;-84
2023/03/14 03:02:56;;;;;;;1.60;1.10;;;10.70;99.90;;;;;;7406978;19;20372;-87
2023/03/14 03:05:22;;;;;;;1.40;1.30;;;10.70;99.90;;;;;;7400377;19;20389;-84
2023/03/14 03:07:47;;;;;;;1.40;1.30;;;10.70;99.90;;;;;;7395703;19;20348;-81
2023/03/14 03:10:52;;;;;;;1.10;1.10;;;10.80;99.90;;;;;;7396158;19;20355;-79
2023/03/14 03:14:39;;;;;;;0.95;0.95;;;10.80;99.90;;;;;;7361956;19;20359;-81
2023/03/14 03:18:08;;;;;;;1.15;1.10;;;10.70;99.90;;;;;;7368784;19;20345;-79
2023/03/14 03:20:43;;;;;;;1.20;1.20;;;10.70;99.90;;;;;;7389668;19;20396;-81
2023/03/14 03:23:09;;;;;;;1.00;1.00;;;10.60;99.90;;;;;;7385137;19;20312;-80
2023/03/14 03:25:50;;;;;;;1.50;1.15;;;10.60;99.90;;;;;;7384321;19;20332;-79
2023/03/14 03:28:30;;;;;;;1.20;1.10;;;10.60;99.90;;;;;;7338008;19;20345;-81
2023/03/14 03:31:09;;;;;;;1.10;1.02;;;10.50;99.90;;;;;;7393326;19;20352;-84
2023/03/14 03:33:36;;;;;;;1.30;1.20;;;10.60;99.90;;;;;;7395391;19;20367;-79
2023/03/14 03:36:02;;;;;;;1.10;1.10;;;10.50;99.90;;;;;;7390025;19;20792;-81
2023/03/14 03:38:32;;;;;;;1.17;1.08;;;10.50;99.90;;;;;;7395418;19;21090;-79
2023/03/14 03:41:03;;;;;;;1.23;1.13;;;10.60;99.90;;;;;;7396188;19;20336;-80
2023/03/14 03:43:29;;;;;;;1.10;1.10;;;10.50;99.90;;;;;;7406776;19;20664;-81
2023/03/14 03:45:56;;;;;;;1.10;1.00;;;10.50;99.90;;;;;;7412108;19;20397;-84
2023/03/14 03:48:22;;;;;;;1.10;1.00;;;10.40;99.90;;;;;;7413428;19;20312;-78
2023/03/14 03:50:49;;;;;;;1.03;1.00;;;10.40;99.90;;;;;;7412270;19;20355;-85
2023/03/14 03:53:19;;;;;;;0.90;0.90;;;10.40;99.90;;;;;;7413910;19;20326;-84
2023/03/14 03:55:44;;;;;;;1.20;1.10;;;10.40;99.90;;;;;;7412369;19;20332;-85
2023/03/14 03:58:42;;;;;;;1.73;1.10;;;10.40;99.90;;;;;;7359641;19;20363;-77
2023/03/14 04:01:34;;;;;;;1.88;1.10;;;10.40;99.90;;;;;;7376808;19;20346;-80
2023/03/14 04:04:00;;;;;;;0.93;0.93;;;10.40;99.90;;;;;;7409161;19;20436;-84
2023/03/14 04:06:26;;;;;;;2.47;1.10;;;10.40;99.90;;;;;;7408921;19;20296;-82
2023/03/14 04:08:54;;;;;;;0.90;0.90;;;10.40;99.90;;;;;;7412749;19;20344;-83
2023/03/14 04:11:31;;;;;;;1.50;1.25;;;10.30;99.90;;;;;;7413191;19;20317;-86
2023/03/14 04:14:08;;;;;;;1.20;1.10;;;10.30;99.90;;;;;;7404384;19;20361;-79
2023/03/14 04:16:51;;;;;;;2.33;1.23;;;10.30;99.90;;;;;;7406203;19;20332;-81
2023/03/14 04:19:19;;;;;;;2.40;1.98;;;10.30;99.90;;;;;;7390177;19;20657;-80
2023/03/14 04:21:46;;;;;;;1.40;1.17;;;10.30;99.90;;;;;;7390598;19;20374;-82
2023/03/14 04:24:13;;;;;;;1.70;1.60;;;10.30;99.90;;;;;;7394005;19;20333;-79
2023/03/14 04:26:42;;;;;;;1.02;0.98;;;10.20;99.90;;;;;;7378296;19;20324;-80
2023/03/14 04:29:10;;;;;;;1.40;1.30;;;10.20;99.90;;;;;;7392588;19;20354;-81
2023/03/14 04:31:36;;;;;;;3.00;1.90;;;10.20;99.90;;;;;;7388487;19;20321;-80
2023/03/14 04:34:02;;;;;;;2.53;1.90;;;10.30;99.90;;;;;;7394400;19;20325;-82
2023/03/14 04:36:35;;;;;;;1.58;1.48;;;10.30;99.90;;;;;;7398955;19;20323;-89
2023/03/14 04:39:04;;;;;;;1.13;0.98;;;10.30;99.90;;;;;;7396517;19;21218;-79
2023/03/14 04:41:31;;;;;;;1.30;1.20;;;10.30;99.90;;;;;;7383195;19;20344;-78
2023/03/14 04:43:57;;;;;;;0.70;0.70;;;10.30;99.90;;;;;;7383314;19;20678;-80
2023/03/14 04:46:22;;;;;;;0.70;0.70;;;10.20;99.90;;;;;;7390954;19;20668;-80
2023/03/14 04:48:50;;;;;;;0.80;0.80;;;10.20;99.90;;;;;;7385365;19;20329;-82
2023/03/14 04:51:18;;;;;;;0.70;0.70;;;10.20;99.90;;;;;;7389009;19;20328;-75
2023/03/14 04:53:44;;;;;;;0.90;0.90;;;10.20;99.90;;;;;;7383688;19;20970;-80
2023/03/14 04:56:31;;;;;;;1.38;0.90;;;10.20;99.90;;;;;;7386501;19;20345;-82
2023/03/14 04:58:59;;;;;;;2.10;0.90;;;10.20;99.90;;;;;;7287437;19;2004412;-78
2023/03/14 05:01:25;;;;;;;0.70;0.70;;;10.20;99.90;;;;;;7384134;19;20322;-82
2023/03/14 05:04:04;;;;;;;1.03;1.00;;;10.20;99.90;;;;;;7389492;19;20334;-76
2023/03/14 05:06:51;;;;;;;0.75;0.75;;;10.20;99.90;;;;;;7364547;19;20896;-76
2023/03/14 05:09:34;;;;;;;0.80;0.70;;;10.20;99.90;;;;;;7294738;19;2004260;-83
2023/03/14 05:12:44;;;;;;;1.45;0.60;;;10.20;99.90;;;;;;7295045;19;2004437;-82
2023/03/14 05:15:33;;;;;;;0.80;0.80;;;10.20;99.90;;;;;;7292882;19;2004257;-76
2023/03/14 05:18:26;;;;;;;1.17;0.82;;;10.20;99.90;;;;;;7283238;19;2004216;-81
2023/03/14 05:21:06;;;;;;;1.10;1.00;;;10.20;99.90;;;;;;7387733;19;20352;-77
2023/03/14 05:24:04;;;;;;;0.70;0.70;;;10.20;99.90;;;;;;7390074;19;20847;-78
2023/03/14 05:26:51;;;;;;;0.70;0.70;;;10.20;99.90;;;;;;7261000;19;2004401;-78
2023/03/14 05:29:47;;;;;;;0.60;0.60;;;10.20;99.90;;;;;;7263847;19;2004436;-79
2023/03/14 05:32:37;;;;;;;0.88;0.82;;;10.20;99.90;;;;;;7281992;19;2004436;-77
2023/03/14 05:35:36;;;;;;;1.20;0.80;;;10.20;99.90;;;;;;7379971;19;20336;-79
2023/03/14 05:38:35;;;;;;;0.70;0.70;;;10.20;99.90;;;;;;7175587;19;2004429;-79
2023/03/14 05:41:37;;;;;;;0.80;0.80;;;10.30;99.90;;;;;;7295400;19;2004389;-81
2023/03/14 05:44:50;;;;;;;0.90;0.90;;;10.30;99.90;;;;;;7190233;19;2004276;-78
2023/03/14 05:47:57;;;;;;;0.70;0.70;;;10.30;99.90;;;;;;7286232;19;2004461;-78
2023/03/14 05:50:39;;;;;;;0.80;0.80;;;10.40;99.90;;;;;;7274638;19;2004374;-78
2023/03/14 05:53:28;;;;;;;1.17;1.08;;;10.50;99.90;;;;;;7282176;19;2004210;-80
2023/03/14 05:56:30;;;;;;;1.08;1.00;;;10.40;99.90;;;;;;7278581;19;2004427;-83
2023/03/14 05:59:08;;;;;;;1.40;1.30;;;10.40;99.90;;;;;;7379484;19;20415;-78
2023/03/14 06:01:52;;;;;;;1.25;1.20;;;10.40;99.90;;;;;;7376967;19;20898;-78
2023/03/14 06:04:22;;;;;;;1.20;1.10;;;10.40;99.90;;;;;;7379148;19;20327;-77
2023/03/14 06:06:53;;;;;;;2.22;1.30;;;10.50;99.90;;;;;;7379788;19;20317;-79
2023/03/14 06:09:22;;;;;;;1.23;1.13;;;10.50;99.90;;;;;;7379656;19;20305;-82
2023/03/14 06:11:47;;;;;;;1.17;1.13;;;10.50;99.90;;;;;;7378336;19;20347;-77
2023/03/14 06:14:13;;;;;;;2.00;1.00;;;10.50;99.90;;;;;;7377236;19;20455;-78
2023/03/14 06:16:43;;;;;;;1.10;1.08;;;10.60;99.90;;;;;;7372065;19;20325;-78
2023/03/14 06:19:09;;;;;;;1.13;1.05;;;10.60;99.90;;;;;;7378072;19;20320;-78
2023/03/14 06:21:36;;;;;;;1.40;1.30;;;10.60;99.90;;;;;;7377531;19;20329;-78
2023/03/14 06:24:02;;;;;;;1.70;1.27;;;10.70;99.90;;;;;;7377890;19;20316;-77
2023/03/14 06:26:30;;;;;;;2.30;1.60;;;10.70;99.90;;;;;;7373860;19;20356;-78
2023/03/14 06:28:55;;;;;;;2.80;1.23;;;10.80;99.90;;;;;;7374689;19;20329;-78
2023/03/14 06:31:21;;;;;;;1.85;1.42;;;10.80;99.90;;;;;;7375401;19;20324;-79
2023/03/14 06:33:53;;;;;;;1.30;1.20;;;10.80;99.90;;;;;;7374237;19;20394;-78
2023/03/14 06:36:19;;;;;;;1.60;1.33;;;10.80;99.90;;;;;;7373948;19;20312;-82
2023/03/14 06:38:46;;;;;;;1.92;1.67;;;10.80;99.90;;;;;;7375121;19;20958;-77
2023/03/14 06:41:13;;;;;;;0.80;0.80;;;10.80;99.90;;;;;;7379335;19;20329;-82
2023/03/14 06:43:41;;;;;;;1.77;1.17;;;10.90;99.90;;;;;;7379943;19;20351;-75
2023/03/14 06:46:08;;;;;;;1.38;1.25;;;11.00;99.90;;;;;;7378025;19;20474;-79
2023/03/14 06:48:35;;;;;;;1.20;1.10;;;11.00;99.90;;;;;;7377865;19;20388;-82
2023/03/14 06:51:01;;;;;;;0.77;0.77;;;11.00;99.90;;;;;;7375416;19;20400;-77
2023/03/14 06:53:27;;;;;;;1.40;1.08;;;11.10;99.90;;;;;;7375232;19;20336;-79
2023/03/14 06:55:53;;;;;;;0.95;0.85;;;11.20;99.90;;;;;;7378435;19;20340;-76
2023/03/14 06:58:19;;;;;;;3.38;1.00;;;11.20;99.90;;;;;;7377239;19;20638;-79
2023/03/14 07:00:45;;;;;;;1.20;1.10;;;11.30;99.90;;;;;;7372815;19;20416;-80
2023/03/14 07:03:16;;;;;;;1.42;1.10;;;11.30;99.90;;;;;;7375975;19;20798;-78
2023/03/14 07:05:45;;;;;;;1.20;1.10;;;11.40;99.90;;;;;;7375417;19;20332;-81
2023/03/14 07:08:10;;;;;;;1.50;0.90;;;11.50;99.90;;;;;;7377284;19;20331;-82
2023/03/14 07:10:36;;;;;;;1.37;1.17;;;11.60;99.90;;;;;;7373106;19;20380;-78
2023/03/14 07:13:02;;;;;;;2.05;1.00;;;11.70;99.90;;;;;;7374664;19;20414;-77
2023/03/14 07:15:31;;;;;;;1.00;1.00;;;11.70;99.90;;;;;;7376355;19;20365;-80
2023/03/14 07:18:02;;;;;;;1.40;1.30;;;11.80;99.90;;;;;;7375901;19;20327;-78
2023/03/14 07:20:32;;;;;;;1.60;1.50;;;11.90;99.90;;;;;;7377115;19;20408;-78
2023/03/14 07:22:59;;;;;;;2.30;1.38;;;12.00;99.90;;;;;;7374860;19;21190;-79
2023/03/14 07:25:35;;;;;;;2.20;1.20;;;12.10;99.90;;;;;;7375452;19;20328;-77
2023/03/14 07:28:00;;;;;;;2.00;1.10;;;12.20;99.90;;;;;;7376168;19;20329;-83
2023/03/14 07:30:26;;;;;;;1.30;0.87;;;12.30;99.90;;;;;;7375469;19;20349;-78
2023/03/14 07:32:53;;;;;;;1.98;1.00;;;12.30;99.90;;;;;;7377984;19;20897;-75
2023/03/14 07:35:23;;;;;;;1.33;0.90;;;12.30;99.90;;;;;;7376397;19;20312;-79
2023/03/14 07:37:48;;;;;;;1.35;0.90;;;12.30;99.90;;;;;;7377533;19;20312;-78
2023/03/14 07:40:17;;;;;;;2.45;1.00;;;12.20;99.90;;;;;;7378462;19;20312;-81
2023/03/14 07:42:43;;;;;;;1.00;1.00;;;12.10;99.90;;;;;;7376183;19;22295;-79
2023/03/14 07:45:19;;;;;;;1.40;1.20;;;12.10;99.90;;;;;;7375869;19;20356;-78
2023/03/14 07:47:45;;;;;;;1.90;1.65;;;12.00;99.90;;;;;;7377010;19;20701;-78
2023/03/14 07:50:10;;;;;;;3.03;1.50;;;11.90;99.90;;;;;;7378284;19;20349;-78
2023/03/14 07:52:36;;;;;;;3.05;1.33;;;11.90;99.90;;;;;;7376853;19;20401;-79
2023/03/14 07:55:01;;;;;;;1.83;1.53;;;11.90;99.90;;;;;;7378092;19;20350;-79
2023/03/14 07:57:36;;;;;;;2.38;1.85;;;11.80;99.90;;;;;;7394167;19;20333;-80
2023/03/14 08:00:05;;;;;;;1.60;1.50;;;11.80;99.90;;;;;;7392145;19;20305;-78
2023/03/14 08:02:38;;;;;;;3.90;1.90;;;11.80;99.90;;;;;;7392070;19;20303;-79
2023/03/14 08:05:04;;;;;;;1.50;1.40;;;11.80;99.90;;;;;;7386738;19;20313;-77
2023/03/14 08:07:30;;;;;;;2.88;1.88;;;11.80;99.90;;;;;;7385568;19;20305;-79
2023/03/14 08:10:05;;;;;;;4.90;2.55;;;11.80;99.90;;;;;;7385336;19;20316;-78
2023/03/14 08:12:30;;;;;;;5.82;2.17;;;11.80;99.90;;;;;;7386715;19;20847;-78
2023/03/14 08:14:56;;;;;;;2.67;1.80;;;11.90;99.90;;;;;;7385646;19;20316;-77
2023/03/14 08:17:22;;;;;;;4.30;2.38;;;12.00;99.90;;;;;;7384561;19;20335;-81
2023/03/14 08:20:06;;;;;;;2.10;1.77;;;11.80;99.90;;;;;;7382009;19;20308;-78
2023/03/14 08:22:32;;;;;;;2.30;1.10;;;11.80;99.90;;;;;;7281871;19;2004402;-76
2023/03/14 08:25:13;;;;;;;1.23;1.13;;;11.80;99.90;;;;;;7391228;19;20400;-81
2023/03/14 08:27:40;;;;;;;2.83;1.25;;;11.90;99.90;;;;;;7391199;19;20911;-79
2023/03/14 08:30:10;;;;;;;1.92;1.00;;;12.00;99.90;;;;;;7391008;19;20304;-80
2023/03/14 08:32:36;;;;;;;1.50;1.17;;;11.90;99.90;;;;;;7393500;19;20296;-78
2023/03/14 08:35:10;;;;;;;2.27;1.10;;;12.00;99.90;;;;;;7391986;19;20308;-80
2023/03/14 08:37:36;;;;;;;2.28;1.20;;;12.10;99.90;;;;;;7390259;19;20368;-77
2023/03/14 08:40:06;;;;;;;1.20;1.10;;;12.10;99.90;;;;;;7371000;19;20312;-78
2023/03/14 08:42:33;;;;;;;1.40;1.10;;;12.20;99.90;;;;;;7392229;19;20323;-78
2023/03/14 08:45:10;;;;;;;3.03;1.40;;;12.30;99.90;;;;;;7391985;19;20843;-78
2023/03/14 08:47:36;;;;;;;1.58;1.30;;;12.20;99.90;;;;;;7391677;19;20300;-78
2023/03/14 08:50:03;;;;;;;1.30;1.20;;;12.20;99.90;;;;;;7392219;19;20344;-79
2023/03/14 08:52:32;;;;;;;1.20;1.10;;;12.20;99.90;;;;;;7393330;19;20309;-78
2023/03/14 08:55:01;;;;;;;1.20;1.00;;;12.40;99.90;;;;;;7395829;19;20398;-85
2023/03/14 08:57:27;;;;;;;1.17;0.95;;;12.40;99.90;;;;;;7398294;19;20345;-81
2023/03/14 08:59:55;;;;;;;1.20;1.10;;;12.50;99.90;;;;;;7404603;19;20409;-81
2023/03/14 09:02:21;;;;;;;1.25;1.10;;;12.50;99.90;;;;;;7402615;19;20351;-82
2023/03/14 09:04:46;;;;;;;1.00;1.00;;;12.70;99.90;;;;;;7398461;19;20317;-80
2023/03/14 09:07:12;;;;;;;1.50;1.40;;;12.80;99.90;;;;;;7398999;19;20445;-81
2023/03/14 09:09:37;;;;;;;2.73;1.73;;;12.90;99.90;;;;;;7397405;19;20317;-82
2023/03/14 09:12:04;;;;;;;1.58;1.23;;;13.10;99.90;;;;;;7394328;19;20408;-79
2023/03/14 09:14:30;;;;;;;1.95;1.60;;;13.10;99.90;;;;;;7389250;19;20427;-79
2023/03/14 09:16:56;;;;;;;2.30;1.40;;;13.00;99.90;;;;;;7386061;19;20305;-79
2023/03/14 09:19:21;;;;;;;3.30;1.13;;;13.00;99.90;;;;;;7381872;19;20293;-81
2023/03/14 09:21:47;;;;;;;3.45;1.17;;;13.10;99.90;;;;;;7381176;19;20851;-75
2023/03/14 09:24:13;;;;;;;1.50;1.00;;;13.00;99.90;;;;;;7382048;19;20343;-77
2023/03/14 09:26:38;;;;;;;1.13;1.03;;;12.90;99.90;;;;;;7376326;19;20328;-78
2023/03/14 09:29:04;;;;;;;1.30;0.88;;;12.90;99.90;;;;;;7380225;19;20431;-77
2023/03/14 09:31:29;;;;;;;1.30;1.10;;;13.00;99.90;;;;;;7378565;19;20309;-79
2023/03/14 09:33:55;;;;;;;2.28;1.20;;;13.10;99.90;;;;;;7379694;19;20353;-83
2023/03/14 09:36:21;;;;;;;0.85;0.85;;;13.20;99.90;;;;;;7377069;19;20316;-81
2023/03/14 09:38:47;;;;;;;1.55;1.02;;;13.20;99.90;;;;;;7378317;19;20328;-79
2023/03/14 09:41:23;;;;;;;3.08;1.38;;;13.30;99.90;;;;;;7380422;19;20340;-79
2023/03/14 09:43:50;;;;;;;0.90;0.90;;;13.40;99.90;;;;;;7376944;19;20320;-77
2023/03/14 09:46:16;;;;;;;1.48;0.93;;;13.60;99.90;;;;;;7377975;19;20350;-77
2023/03/14 09:48:44;;;;;;;1.00;0.95;;;13.70;99.90;;;;;;7379871;19;20907;-77
2023/03/14 09:51:14;;;;;;;1.25;0.82;;;13.80;99.90;;;;;;7379319;19;20333;-76
2023/03/14 09:53:42;;;;;;;1.48;0.90;;;13.60;99.90;;;;;;7379023;19;20333;-79
2023/03/14 09:56:29;;;;;;;1.05;0.90;;;13.60;99.90;;;;;;7376971;19;20352;-77
2023/03/14 09:58:59;;;;;;;1.02;1.00;;;13.60;99.90;;;;;;7375817;19;20321;-77
2023/03/14 10:01:27;;;;;;;1.10;0.80;;;13.70;99.90;;;;;;7379579;19;20365;-78
2023/03/14 10:03:57;;;;;;;1.65;1.10;;;13.80;99.90;;;;;;7377035;19;20962;-78
2023/03/14 10:06:26;;;;;;;0.93;0.88;;;13.90;99.90;;;;;;7378647;19;20360;-77
2023/03/14 10:08:52;;;;;;;1.88;0.82;;;14.10;99.90;;;;;;7377360;19;20353;-79
2023/03/14 10:11:18;;;;;;;0.98;0.90;;;14.10;99.90;;;;;;7378352;19;20333;-76
2023/03/14 10:14:06;;;;;;;0.93;0.93;;;14.20;99.90;;;;;;7378129;19;20448;-76
2023/03/14 10:16:45;;;;;;;1.95;1.00;;;14.30;99.90;;;;;;7275197;19;2004184;-84
2023/03/14 10:19:12;;;;;;;3.70;1.75;;;14.40;99.90;;;;;;7377911;19;20348;-78
2023/03/14 10:21:42;;;;;;;1.95;1.38;;;14.30;99.90;;;;;;7379363;19;20696;-79
2023/03/14 10:24:18;;;;;;;3.93;2.37;;;14.20;99.90;;;;;;7379250;19;20309;-77
2023/03/14 10:26:44;;;;;;;0.98;0.85;;;14.00;99.90;;;;;;7377724;19;20868;-77
2023/03/14 10:29:12;;;;;;;1.63;1.10;;;13.90;99.90;;;;;;7381581;19;20336;-78
2023/03/14 10:31:48;;;;;;;2.58;1.10;;;13.80;99.90;;;;;;7378325;19;20321;-78
2023/03/14 10:34:16;;;;;;;2.03;1.43;;;13.80;99.90;;;;;;7379000;19;20986;-81
2023/03/14 10:36:42;;;;;;;2.03;1.42;;;13.80;99.90;;;;;;7377699;19;21005;-79
2023/03/14 10:39:28;;;;;;;3.50;1.83;;;13.80;99.90;;;;;;7380307;19;20347;-80
2023/03/14 10:42:34;;;;;;;2.30;1.80;;;13.70;99.90;;;;;;7364698;19;20365;-84
2023/03/14 10:45:25;;;;;;;0.95;0.95;;;13.60;99.90;;;;;;7147320;19;2004395;-86
2023/03/14 10:51:35;;;;;;;1.50;1.00;;;13.60;99.90;;;;;;7360942;19;20344;-78
2023/03/14 10:54:01;;;;;;;0.90;0.90;;;13.60;99.90;;;;;;7408180;19;20364;-84
2023/03/14 10:56:32;;;;;;;1.17;1.08;;;13.50;99.90;;;;;;7408349;19;20352;-76
2023/03/14 10:58:58;;;;;;;2.00;0.85;;;13.40;99.90;;;;;;7403395;19;20341;-82
2023/03/14 11:02:16;;;;;;;1.30;0.90;;;13.40;99.90;;;;;;7393805;19;20802;-79
2023/03/14 11:05:17;;;;;;;1.65;1.20;;;13.40;99.90;;;;;;7282408;19;2004220;-83
2023/03/14 11:08:27;;;;;;;0.82;0.82;;;13.40;99.90;;;;;;7297541;19;2025685;-80
2023/03/14 11:18:14;;;;;;;1.27;1.17;;;13.50;99.90;;;;;;7405531;19;20358;-84
2023/03/14 11:20:45;;;;;;;0.88;0.88;;;13.50;99.90;;;;;;7308017;19;2004247;-83
2023/03/14 11:23:14;;;;;;;0.77;0.77;;;13.50;99.90;;;;;;7408615;19;20309;-83
2023/03/14 11:26:06;;;;;;;2.77;1.07;;;13.60;99.90;;;;;;7408220;19;20382;-84
2023/03/14 11:28:38;;;;;;;0.80;0.80;;;13.60;99.90;;;;;;7307707;19;2004276;-80
2023/03/14 11:31:13;;;;;;;2.33;1.27;;;13.70;99.90;;;;;;7407838;19;20325;-82
2023/03/14 11:33:54;;;;;;;2.72;1.30;;;13.70;99.90;;;;;;7408896;19;20320;-83
2023/03/14 11:36:21;;;;;;;1.23;0.80;;;13.60;99.90;;;;;;7407414;19;20316;-84
2023/03/14 11:38:50;;;;;;;0.75;0.75;;;13.60;99.90;;;;;;7411165;19;20320;-83
2023/03/14 11:41:23;;;;;;;0.70;0.70;;;13.60;99.90;;;;;;7409945;19;20323;-82
2023/03/14 11:43:55;;;;;;;1.00;0.90;;;13.60;99.90;;;;;;7409781;19;20324;-88
2023/03/14 11:46:26;;;;;;;1.57;0.90;;;13.60;99.90;;;;;;7407532;19;20436;-84
2023/03/14 11:49:32;;;;;;;0.65;0.65;;;13.60;99.90;;;;;;7378508;19;20305;-76
2023/03/14 11:55:32;;;;;;;0.80;0.80;;;14.00;99.90;;;;;;7408244;19;20360;-83
2023/03/14 11:58:20;;;;;;;0.80;0.80;;;14.10;99.90;;;;;;7410712;19;20320;-80
2023/03/14 12:00:46;;;;;;;3.13;0.95;;;14.20;99.90;;;;;;7416683;19;20351;-82
2023/03/14 12:03:19;;;;;;;0.90;0.90;;;14.30;99.90;;;;;;7415287;19;20384;-82
2023/03/14 12:06:05;;;;;;;0.60;0.60;;;14.30;99.90;;;;;;7416154;19;20385;-83
2023/03/14 12:08:34;;;;;;;0.77;0.77;;;14.30;99.90;;;;;;7197228;19;2004121;-79
2023/03/14 12:11:20;;;;;;;1.52;0.73;;;14.30;99.90;;;;;;7394726;19;20351;-84
2023/03/14 12:13:54;;;;;;;1.07;0.80;;;14.30;99.90;;;;;;7418109;19;20324;-80
2023/03/14 12:16:22;;;;;;;0.98;0.70;;;14.30;99.90;;;;;;7414360;19;20308;-82
2023/03/14 12:18:48;;;;;;;2.00;0.80;;;14.20;99.90;;;;;;7415467;19;20321;-79
2023/03/14 12:27:54;;;;;;;1.40;0.70;;;14.20;99.90;;;;;;7413464;19;20308;-81
2023/03/14 12:30:25;;;;;;;1.77;0.80;;;14.30;99.90;;;;;;7418667;19;20316;-82
2023/03/14 12:33:09;;;;;;;0.82;0.70;;;14.30;99.90;;;;;;7415751;19;20854;-83
2023/03/14 12:35:38;;;;;;;0.68;0.68;;;14.30;99.90;;;;;;7312552;19;2004476;-85
2023/03/14 12:38:05;;;;;;;1.10;1.00;;;14.30;99.90;;;;;;7415791;19;20400;-86
2023/03/14 12:40:35;;;;;;;0.80;0.80;;;14.40;99.90;;;;;;7416338;19;20313;-78
2023/03/14 12:43:03;;;;;;;0.80;0.80;;;14.50;99.90;;;;;;7417675;19;20344;-78
2023/03/14 12:45:32;;;;;;;0.80;0.80;;;14.60;99.90;;;;;;7420428;19;20376;-81
2023/03/14 12:48:08;;;;;;;0.95;0.95;;;14.70;99.90;;;;;;7418429;19;20372;-79
2023/03/14 12:50:56;;;;;;;1.00;0.85;;;14.60;99.90;;;;;;7417694;19;20433;-81
2023/03/14 12:53:53;;;;;;;1.10;0.93;;;14.50;99.90;;;;;;7416211;19;20381;-85
2023/03/14 12:56:49;;;;;;;1.20;1.08;;;14.30;99.90;;;;;;7311116;19;2004163;-84
2023/03/14 12:59:21;;;;;;;2.97;1.20;;;14.10;99.90;;;;;;7310177;19;2004563;-85
2023/03/14 13:01:59;;;;;;;0.93;0.93;;;13.80;99.90;;;;;;7413988;19;20352;-86
2023/03/14 13:04:31;;;;;;;0.93;0.90;;;13.70;99.90;;;;;;7412792;19;20305;-83
2023/03/14 13:07:01;;;;;;;1.10;0.90;;;13.50;99.90;;;;;;7413257;19;20833;-85
2023/03/14 13:09:32;;;;;;;0.77;0.77;;;13.30;99.90;;;;;;7410278;19;20641;-84
2023/03/14 13:12:11;;;;;;;0.90;0.90;;;12.90;99.90;;;;;;7308005;19;2004257;-78
2023/03/14 13:14:41;;;;;;;1.30;1.00;;;12.50;99.90;;;;;;7410114;19;20341;-87
2023/03/14 13:17:10;;;;;;;2.25;1.02;;;12.20;99.90;;;;;;7408352;19;20376;-84
2023/03/14 13:19:36;;;;;;;0.90;0.90;;;12.20;99.90;;;;;;7412176;19;20352;-86
2023/03/14 13:22:04;;;;;;;2.28;0.95;;;12.10;99.90;;;;;;7410549;19;20376;-86
2023/03/14 13:24:33;;;;;;;0.93;0.90;;;12.10;99.90;;;;;;7390230;19;20324;-84
2023/03/14 13:27:02;;;;;;;1.25;0.80;;;12.30;99.90;;;;;;7409632;19;20348;-85
2023/03/14 13:29:31;;;;;;;2.15;1.35;;;12.40;99.90;;;;;;7410802;19;20384;-88
2023/03/14 13:32:00;;;;;;;2.10;1.42;;;12.70;99.90;;;;;;7410364;19;20315;-80
2023/03/14 13:34:33;;;;;;;2.55;2.33;;;13.00;99.90;;;;;;7412701;19;20368;-77
2023/03/14 13:36:59;;;;;;;0.80;0.70;;;13.10;99.90;;;;;;7280561;19;2004088;-82
2023/03/14 13:39:26;;;;;;;1.25;0.90;;;13.00;99.90;;;;;;7384693;19;20324;-80
2023/03/14 13:41:52;;;;;;;0.90;0.80;;;12.80;99.90;;;;;;7388221;19;20340;-81
2023/03/14 13:44:34;;;;;;;0.88;0.88;;;12.90;99.90;;;;;;7402590;19;20341;-79
2023/03/14 13:47:01;;;;;;;1.25;1.15;;;12.60;99.90;;;;;;7288728;19;2004675;-80
2023/03/14 13:49:28;;;;;;;0.90;0.90;;;12.50;99.90;;;;;;7390488;19;20352;-80